Time;durP1;ratioP1;P1;durP2;ratioP2;P2;SDS_P1;SDS_P2;PMS_P1;PMS_P2;Temp;Humidity;BMP_temperature;BMP_pressure;BME280_temperature;BME280_humidity;BME280_pressure;Samples;Min_cycle;Max_cycle;Signal;HPM_P1;HPM_P2
2022/02/18 00:01:00;;;;;;;13.93;3.88;;;10.20;92.40;;;;;;5043142;28;20206;-80
2022/02/18 00:03:27;;;;;;;10.70;3.45;;;9.90;93.00;;;;;;5042000;28;20258;-82
2022/02/18 00:05:53;;;;;;;10.93;2.92;;;10.00;92.50;;;;;;5038479;28;20220;-83
2022/02/18 00:08:20;;;;;;;12.23;4.07;;;10.10;92.60;;;;;;5038326;28;20691;-82
2022/02/18 00:10:45;;;;;;;8.52;3.40;;;10.40;93.00;;;;;;5042312;28;20288;-81
2022/02/18 00:13:13;;;;;;;11.57;3.97;;;9.50;93.60;;;;;;5032245;28;20274;-82
2022/02/18 00:15:38;;;;;;;10.68;3.30;;;9.50;93.90;;;;;;5045942;28;20639;-81
2022/02/18 00:18:05;;;;;;;13.10;4.00;;;9.60;93.80;;;;;;5045411;28;20193;-81
2022/02/18 00:20:33;;;;;;;9.60;3.45;;;10.10;93.30;;;;;;5037152;28;20464;-81
2022/02/18 00:23:03;;;;;;;13.50;4.13;;;10.10;93.20;;;;;;5043875;28;20726;-81
2022/02/18 00:25:30;;;;;;;9.73;3.95;;;9.40;93.40;;;;;;5041031;28;20327;-82
2022/02/18 00:27:55;;;;;;;11.48;3.58;;;10.00;93.20;;;;;;5032295;28;20241;-81
2022/02/18 00:30:21;;;;;;;9.80;3.13;;;10.20;93.30;;;;;;5038756;28;20225;-81
2022/02/18 00:32:47;;;;;;;12.13;3.47;;;10.10;93.40;;;;;;5039121;28;20274;-81
2022/02/18 00:35:19;;;;;;;11.10;3.83;;;9.80;94.40;;;;;;5043172;28;20224;-80
2022/02/18 00:37:47;;;;;;;12.10;3.08;;;9.80;93.80;;;;;;5039094;28;20220;-84
2022/02/18 00:40:13;;;;;;;9.48;2.95;;;9.90;93.60;;;;;;5049717;28;20570;-80
2022/02/18 00:42:39;;;;;;;9.70;3.20;;;9.80;93.20;;;;;;5048020;28;20193;-82
2022/02/18 00:45:05;;;;;;;10.77;3.30;;;10.00;92.60;;;;;;5048981;28;20437;-82
2022/02/18 00:47:31;;;;;;;10.48;3.53;;;10.10;92.40;;;;;;5043239;28;21018;-81
2022/02/18 00:49:56;;;;;;;11.03;2.90;;;10.10;92.30;;;;;;5034671;28;20214;-81
2022/02/18 00:52:22;;;;;;;10.33;3.80;;;10.00;92.30;;;;;;5045497;28;20337;-82
2022/02/18 00:54:48;;;;;;;9.23;3.17;;;10.00;92.20;;;;;;5042676;28;20191;-82
2022/02/18 00:57:13;;;;;;;9.83;3.37;;;10.30;92.60;;;;;;5037669;28;20532;-82
2022/02/18 00:59:39;;;;;;;8.90;3.33;;;10.00;92.40;;;;;;5051396;28;20193;-82
2022/02/18 01:02:05;;;;;;;8.97;3.60;;;10.50;92.60;;;;;;5037448;28;20211;-81
2022/02/18 01:04:30;;;;;;;9.57;3.30;;;10.30;92.30;;;;;;5046346;28;20181;-81
2022/02/18 01:06:56;;;;;;;11.53;3.17;;;10.10;91.90;;;;;;5040258;28;20415;-81
2022/02/18 01:09:21;;;;;;;11.73;2.80;;;10.50;92.20;;;;;;5048500;28;20227;-81
2022/02/18 01:11:47;;;;;;;10.00;3.20;;;10.30;92.10;;;;;;5041649;28;20212;-80
2022/02/18 01:14:12;;;;;;;8.77;2.60;;;10.70;92.30;;;;;;5022029;28;20603;-81
2022/02/18 01:16:38;;;;;;;8.27;2.83;;;10.50;92.30;;;;;;5039740;28;20187;-81
2022/02/18 01:19:04;;;;;;;8.63;2.80;;;10.60;92.20;;;;;;5043333;28;20350;-81
2022/02/18 01:21:29;;;;;;;8.10;3.10;;;10.60;92.20;;;;;;5058036;28;20207;-81
2022/02/18 01:23:55;;;;;;;11.63;3.40;;;10.70;92.10;;;;;;5053513;28;20189;-81
2022/02/18 01:26:20;;;;;;;8.67;2.57;;;10.50;92.30;;;;;;5048649;28;20195;-82
2022/02/18 01:28:46;;;;;;;7.97;2.93;;;10.50;92.00;;;;;;5019856;28;20224;-81
2022/02/18 01:31:13;;;;;;;7.90;3.20;;;10.10;91.90;;;;;;5041283;28;20593;-81
2022/02/18 01:33:39;;;;;;;9.07;3.40;;;10.80;92.10;;;;;;5052884;28;20532;-81
2022/02/18 01:36:04;;;;;;;10.43;2.70;;;10.80;92.00;;;;;;5043038;28;20261;-81
2022/02/18 01:38:30;;;;;;;10.93;2.97;;;10.60;91.80;;;;;;5041476;28;20178;-82
2022/02/18 01:40:56;;;;;;;9.40;3.00;;;10.30;91.60;;;;;;5054500;28;20315;-81
2022/02/18 01:43:22;;;;;;;9.45;3.50;;;10.50;91.80;;;;;;5033207;28;20177;-80
2022/02/18 01:45:48;;;;;;;8.77;2.73;;;10.30;92.00;;;;;;5045203;28;20522;-80
2022/02/18 01:48:13;;;;;;;12.20;3.87;;;10.30;92.30;;;;;;5034142;28;20210;-80
2022/02/18 01:50:39;;;;;;;9.80;4.07;;;10.20;92.30;;;;;;5043564;28;20526;-81
2022/02/18 01:53:08;;;;;;;10.83;2.57;;;10.30;92.50;;;;;;5042123;28;20507;-80
2022/02/18 01:55:34;;;;;;;8.05;3.00;;;10.50;92.30;;;;;;5042406;28;20611;-80
2022/02/18 01:58:01;;;;;;;6.03;2.67;;;10.20;92.20;;;;;;5043264;28;20257;-81
2022/02/18 02:00:29;;;;;;;8.02;3.30;;;9.90;92.80;;;;;;5044080;28;20208;-82
2022/02/18 02:02:56;;;;;;;8.50;2.83;;;10.50;92.40;;;;;;5037220;28;20190;-83
2022/02/18 02:05:23;;;;;;;10.15;3.65;;;10.80;92.60;;;;;;5046090;28;20199;-83
2022/02/18 02:07:49;;;;;;;9.35;2.75;;;10.50;92.00;;;;;;5057321;28;20212;-80
2022/02/18 02:10:16;;;;;;;8.45;2.97;;;10.40;91.90;;;;;;5048670;28;20293;-80
2022/02/18 02:12:50;;;;;;;9.30;2.60;;;10.20;91.80;;;;;;5027064;28;20192;-80
2022/02/18 02:15:17;;;;;;;8.07;2.85;;;10.40;92.10;;;;;;5053696;28;20179;-80
2022/02/18 02:17:44;;;;;;;10.60;3.10;;;10.30;92.10;;;;;;5028439;28;20473;-80
2022/02/18 02:20:12;;;;;;;7.85;2.95;;;10.40;92.00;;;;;;5033606;28;20265;-81
2022/02/18 02:22:38;;;;;;;10.52;3.65;;;10.30;91.90;;;;;;5042004;28;20195;-81
2022/02/18 02:25:06;;;;;;;13.70;3.45;;;10.40;92.00;;;;;;5050279;28;20276;-82
2022/02/18 02:27:32;;;;;;;11.43;3.08;;;10.50;92.30;;;;;;5054385;28;20191;-80
2022/02/18 02:29:58;;;;;;;10.15;2.60;;;10.30;92.20;;;;;;5054095;28;20227;-80
2022/02/18 02:32:24;;;;;;;8.38;3.35;;;10.40;92.20;;;;;;5046236;28;20261;-81
2022/02/18 02:34:49;;;;;;;6.50;2.37;;;10.40;92.30;;;;;;5025632;28;20199;-80
2022/02/18 02:37:15;;;;;;;6.63;2.47;;;10.70;92.40;;;;;;5047539;28;20563;-81
2022/02/18 02:39:41;;;;;;;12.60;3.50;;;10.40;92.20;;;;;;5043062;28;20189;-80
2022/02/18 02:42:07;;;;;;;8.50;3.43;;;10.50;92.40;;;;;;5042884;28;20436;-81
2022/02/18 02:44:34;;;;;;;8.48;3.47;;;10.80;92.50;;;;;;5044399;28;20793;-81
2022/02/18 02:47:00;;;;;;;12.02;3.30;;;10.10;92.10;;;;;;5056099;28;20272;-80
2022/02/18 02:49:26;;;;;;;6.43;2.77;;;10.30;92.40;;;;;;5035172;28;20198;-81
2022/02/18 02:51:52;;;;;;;8.13;2.57;;;10.50;92.60;;;;;;5059580;28;20462;-81
2022/02/18 02:54:17;;;;;;;11.80;2.80;;;10.70;92.80;;;;;;5048417;28;20536;-81
2022/02/18 02:56:43;;;;;;;6.33;2.90;;;10.70;93.10;;;;;;5060233;28;20185;-81
2022/02/18 02:59:09;;;;;;;5.73;2.57;;;10.00;93.10;;;;;;5046061;28;20221;-81
2022/02/18 03:01:35;;;;;;;7.67;2.90;;;10.10;93.30;;;;;;5049145;28;20210;-80
2022/02/18 03:04:01;;;;;;;10.25;2.85;;;10.10;93.60;;;;;;5035236;28;20547;-81
2022/02/18 03:06:27;;;;;;;8.67;2.43;;;10.20;93.50;;;;;;5044993;28;20187;-81
2022/02/18 03:08:52;;;;;;;7.60;2.50;;;10.10;93.70;;;;;;5045446;28;20241;-82
2022/02/18 03:11:18;;;;;;;8.23;3.23;;;10.10;93.70;;;;;;5049044;28;20225;-83
2022/02/18 03:13:50;;;;;;;11.40;3.10;;;10.40;94.30;;;;;;5049600;28;20187;-81
2022/02/18 03:16:17;;;;;;;17.70;3.75;;;10.20;94.20;;;;;;5040542;28;20559;-80
2022/02/18 03:18:44;;;;;;;14.90;3.08;;;9.40;94.30;;;;;;5028381;28;20190;-81
2022/02/18 03:21:10;;;;;;;6.32;3.00;;;9.40;94.50;;;;;;5015360;28;20202;-82
2022/02/18 03:23:36;;;;;;;9.43;2.77;;;10.20;94.90;;;;;;5036229;28;20186;-83
2022/02/18 03:26:02;;;;;;;6.05;2.42;;;10.20;95.00;;;;;;5037785;28;20987;-82
2022/02/18 03:28:27;;;;;;;9.30;3.13;;;10.00;94.80;;;;;;5056422;28;20205;-83
2022/02/18 03:30:53;;;;;;;5.57;2.60;;;10.30;95.20;;;;;;5039694;28;20442;-82
2022/02/18 03:33:19;;;;;;;7.13;2.30;;;9.80;95.60;;;;;;5039565;28;20178;-83
2022/02/18 03:35:45;;;;;;;7.40;3.13;;;9.60;95.60;;;;;;5046968;28;20530;-83
2022/02/18 03:38:11;;;;;;;5.03;2.20;;;9.90;95.80;;;;;;5042412;28;20211;-82
2022/02/18 03:40:37;;;;;;;8.65;2.67;;;9.90;96.30;;;;;;5051677;28;20768;-83
2022/02/18 03:43:02;;;;;;;7.67;2.37;;;10.10;95.70;;;;;;5040102;28;20252;-83
2022/02/18 03:45:28;;;;;;;6.53;2.30;;;9.50;95.60;;;;;;5053053;28;20440;-82
2022/02/18 03:47:53;;;;;;;6.73;2.40;;;9.70;95.60;;;;;;5041086;28;20210;-82
2022/02/18 03:50:19;;;;;;;8.97;2.20;;;9.60;95.60;;;;;;5030063;28;20198;-81
2022/02/18 03:52:45;;;;;;;8.30;2.70;;;9.80;95.80;;;;;;5040040;28;20182;-81
2022/02/18 03:55:11;;;;;;;8.83;3.63;;;9.70;95.80;;;;;;5052904;28;20414;-81
2022/02/18 03:57:37;;;;;;;7.47;2.67;;;9.90;95.90;;;;;;5039816;28;20190;-81
2022/02/18 04:00:05;;;;;;;8.67;3.00;;;10.00;95.50;;;;;;5043256;28;20192;-82
2022/02/18 04:02:30;;;;;;;6.75;2.65;;;9.70;96.00;;;;;;5043706;28;20774;-82
2022/02/18 04:04:56;;;;;;;7.87;3.10;;;9.60;96.30;;;;;;5022627;28;20186;-81
2022/02/18 04:07:22;;;;;;;6.27;2.90;;;9.60;96.40;;;;;;5026295;28;20919;-81
2022/02/18 04:09:47;;;;;;;7.60;2.37;;;9.70;96.40;;;;;;5042948;28;20547;-82
2022/02/18 04:12:13;;;;;;;8.57;2.90;;;9.40;96.40;;;;;;5044246;28;20198;-81
2022/02/18 04:14:38;;;;;;;8.90;2.63;;;9.60;96.60;;;;;;5053060;28;20186;-81
2022/02/18 04:17:04;;;;;;;6.10;2.07;;;9.60;96.80;;;;;;5043324;28;20185;-80
2022/02/18 04:19:30;;;;;;;7.57;3.30;;;10.00;96.60;;;;;;5032621;28;20670;-81
2022/02/18 04:21:55;;;;;;;6.67;2.30;;;9.70;97.00;;;;;;5053036;28;20208;-81
2022/02/18 04:24:21;;;;;;;9.23;3.30;;;9.90;97.30;;;;;;5044251;28;20186;-80
2022/02/18 04:26:46;;;;;;;7.80;3.33;;;9.90;97.40;;;;;;5053355;28;20205;-81
2022/02/18 04:29:12;;;;;;;9.00;3.00;;;9.50;97.80;;;;;;5040643;28;20202;-81
2022/02/18 04:31:38;;;;;;;7.93;2.67;;;9.70;97.70;;;;;;5044106;28;20225;-81
2022/02/18 04:34:03;;;;;;;8.87;2.37;;;9.90;97.70;;;;;;5027785;28;20273;-82
2022/02/18 04:36:29;;;;;;;5.87;2.40;;;9.30;97.50;;;;;;5043028;28;20174;-81
2022/02/18 04:38:55;;;;;;;5.50;2.90;;;9.90;97.80;;;;;;5038751;28;20184;-81
2022/02/18 04:41:24;;;;;;;12.53;3.10;;;9.60;97.80;;;;;;5039913;28;20671;-81
2022/02/18 04:43:50;;;;;;;7.43;2.50;;;9.90;98.00;;;;;;5045698;28;20181;-81
2022/02/18 04:46:16;;;;;;;6.88;2.80;;;10.00;97.50;;;;;;5038650;28;20632;-81
2022/02/18 04:48:41;;;;;;;5.63;2.20;;;9.90;98.00;;;;;;5035746;28;20218;-82
2022/02/18 04:51:07;;;;;;;11.67;3.03;;;10.10;97.70;;;;;;5042633;28;20206;-81
2022/02/18 04:53:32;;;;;;;8.90;3.10;;;9.80;98.10;;;;;;5037064;28;20350;-80
2022/02/18 04:55:58;;;;;;;5.90;3.50;;;10.00;97.80;;;;;;5035318;28;20178;-83
2022/02/18 04:58:24;;;;;;;6.10;2.47;;;9.90;98.20;;;;;;5035149;28;20182;-84
2022/02/18 05:00:49;;;;;;;7.73;2.93;;;10.00;97.90;;;;;;5052688;28;20234;-83
2022/02/18 05:03:15;;;;;;;8.70;3.10;;;9.80;98.30;;;;;;5028317;28;20500;-83
2022/02/18 05:05:41;;;;;;;7.33;2.80;;;9.90;98.30;;;;;;5034613;28;20207;-83
2022/02/18 05:08:06;;;;;;;7.35;2.50;;;9.70;98.20;;;;;;5042191;28;20449;-84
2022/02/18 05:10:32;;;;;;;7.50;2.63;;;9.30;98.10;;;;;;5045559;28;20704;-84
2022/02/18 05:12:58;;;;;;;7.93;2.50;;;9.90;98.30;;;;;;5043985;28;20649;-85
2022/02/18 05:15:23;;;;;;;8.73;2.73;;;10.20;98.10;;;;;;5040743;28;20549;-84
2022/02/18 05:17:49;;;;;;;5.60;2.70;;;10.30;98.20;;;;;;5044410;28;20205;-84
2022/02/18 05:20:16;;;;;;;10.13;3.47;;;9.70;98.40;;;;;;5042654;28;20697;-83
2022/02/18 05:22:42;;;;;;;10.57;3.30;;;9.80;98.40;;;;;;5044207;28;20610;-81
2022/02/18 05:25:08;;;;;;;8.90;3.15;;;10.10;97.70;;;;;;5037801;28;20213;-83
2022/02/18 05:27:33;;;;;;;7.67;3.47;;;9.90;98.20;;;;;;5036575;28;20589;-85
2022/02/18 05:29:59;;;;;;;8.37;3.27;;;9.90;98.50;;;;;;5041901;28;20666;-80
2022/02/18 05:32:24;;;;;;;10.07;3.70;;;9.80;98.50;;;;;;5046222;28;20686;-82
2022/02/18 05:34:50;;;;;;;7.47;2.20;;;10.20;97.90;;;;;;5028114;28;20174;-85
2022/02/18 05:37:15;;;;;;;9.70;2.60;;;10.30;98.00;;;;;;5045055;28;20201;-85
2022/02/18 05:39:41;;;;;;;10.87;2.60;;;9.90;98.10;;;;;;5048043;28;20233;-85
2022/02/18 05:42:07;;;;;;;7.00;3.60;;;10.30;98.00;;;;;;5046166;28;20570;-83
2022/02/18 05:44:34;;;;;;;8.80;3.33;;;9.80;98.30;;;;;;5030957;28;20197;-84
2022/02/18 05:47:00;;;;;;;12.32;3.22;;;9.80;98.30;;;;;;5037152;28;20423;-85
2022/02/18 05:49:26;;;;;;;4.27;2.07;;;10.00;97.90;;;;;;5030335;28;20217;-84
2022/02/18 05:51:51;;;;;;;8.00;2.45;;;9.80;98.20;;;;;;5033975;28;20475;-85
2022/02/18 05:54:17;;;;;;;9.63;2.63;;;10.20;97.70;;;;;;5047017;28;20183;-84
2022/02/18 05:56:42;;;;;;;8.77;2.60;;;9.70;98.10;;;;;;5040904;28;20197;-80
2022/02/18 05:59:08;;;;;;;11.30;3.50;;;10.20;97.60;;;;;;5039832;28;20189;-80
2022/02/18 06:01:34;;;;;;;8.47;3.93;;;10.00;97.30;;;;;;5043595;28;20221;-80
2022/02/18 06:03:59;;;;;;;11.30;3.33;;;10.10;97.50;;;;;;5028689;28;20194;-80
2022/02/18 06:06:27;;;;;;;10.73;3.70;;;10.40;97.70;;;;;;5050158;28;20194;-85
2022/02/18 06:08:52;;;;;;;7.53;3.33;;;10.30;97.40;;;;;;5049419;28;20692;-84
2022/02/18 06:11:18;;;;;;;4.90;3.83;;;10.30;97.70;;;;;;5038330;28;20213;-82
2022/02/18 06:13:44;;;;;;;13.60;2.67;;;10.00;97.50;;;;;;5058086;28;20195;-86
2022/02/18 06:16:09;;;;;;;9.40;3.20;;;10.00;97.60;;;;;;5052460;28;20448;-85
2022/02/18 06:18:35;;;;;;;11.70;3.70;;;9.80;98.00;;;;;;5033189;28;20190;-84
2022/02/18 06:21:00;;;;;;;6.80;3.87;;;10.20;97.70;;;;;;5032709;28;21568;-84
2022/02/18 06:23:26;;;;;;;5.23;2.47;;;9.90;98.00;;;;;;5029524;28;20685;-83
2022/02/18 06:25:51;;;;;;;6.07;2.73;;;9.90;98.00;;;;;;5029081;28;20266;-82
2022/02/18 06:28:17;;;;;;;8.90;3.33;;;9.60;97.50;;;;;;5023765;28;20207;-82
2022/02/18 06:30:42;;;;;;;8.80;3.13;;;9.90;98.10;;;;;;5029595;28;20701;-83
2022/02/18 06:33:09;;;;;;;13.93;4.30;;;10.30;97.60;;;;;;5027278;28;20192;-88
2022/02/18 06:35:36;;;;;;;5.80;3.05;;;10.50;97.80;;;;;;5031536;28;20192;-90
2022/02/18 06:38:02;;;;;;;5.70;2.72;;;9.90;97.90;;;;;;5028518;28;20201;-87
2022/02/18 06:40:28;;;;;;;8.00;2.83;;;10.10;97.30;;;;;;5034729;28;20210;-88
2022/02/18 06:42:54;;;;;;;13.10;5.10;;;10.20;97.30;;;;;;5039805;28;20949;-87
2022/02/18 06:45:19;;;;;;;8.17;3.03;;;10.70;97.20;;;;;;5033896;28;20213;-87
2022/02/18 06:47:46;;;;;;;7.13;2.60;;;10.30;96.60;;;;;;5015906;28;20635;-81
2022/02/18 06:50:13;;;;;;;7.35;2.88;;;10.70;96.80;;;;;;5029165;28;20244;-81
2022/02/18 06:52:39;;;;;;;10.27;2.70;;;10.30;96.30;;;;;;5035155;28;20205;-85
2022/02/18 06:55:06;;;;;;;5.13;2.15;;;10.30;96.20;;;;;;5033728;28;20217;-84
2022/02/18 06:57:32;;;;;;;9.18;3.15;;;10.20;96.60;;;;;;5038668;28;20194;-84
2022/02/18 06:59:58;;;;;;;11.10;2.87;;;10.20;96.40;;;;;;5030188;28;20260;-83
2022/02/18 07:02:23;;;;;;;6.80;2.43;;;10.40;96.60;;;;;;5030514;28;20190;-84
2022/02/18 07:04:49;;;;;;;7.47;2.97;;;10.70;96.70;;;;;;5029466;28;20187;-84
2022/02/18 07:07:14;;;;;;;6.30;2.20;;;10.40;96.60;;;;;;5025347;28;20210;-81
2022/02/18 07:09:40;;;;;;;7.07;2.50;;;10.70;96.80;;;;;;5030769;28;20219;-81
2022/02/18 07:12:07;;;;;;;6.57;2.40;;;10.80;97.10;;;;;;5031303;28;20208;-86
2022/02/18 07:14:32;;;;;;;7.25;3.30;;;10.20;96.90;;;;;;5029641;28;20203;-81
2022/02/18 07:16:58;;;;;;;21.87;3.03;;;10.70;97.10;;;;;;5009167;28;20205;-81
2022/02/18 07:19:24;;;;;;;8.70;3.03;;;10.50;97.10;;;;;;5023061;28;20762;-83
2022/02/18 07:21:49;;;;;;;8.77;2.90;;;10.50;97.10;;;;;;5028434;28;20203;-81
2022/02/18 07:24:15;;;;;;;10.97;3.90;;;10.30;96.50;;;;;;5028153;28;20419;-80
2022/02/18 07:26:40;;;;;;;11.17;3.70;;;11.20;97.20;;;;;;5026049;28;20201;-79
2022/02/18 07:29:06;;;;;;;8.70;3.37;;;11.00;97.30;;;;;;5025714;28;20214;-86
2022/02/18 07:31:32;;;;;;;5.80;2.60;;;10.60;97.30;;;;;;5029974;28;20222;-84
2022/02/18 07:33:57;;;;;;;8.73;2.60;;;10.90;97.30;;;;;;5027226;28;20284;-86
2022/02/18 07:36:23;;;;;;;9.43;2.77;;;10.90;97.20;;;;;;5031219;28;20225;-85
2022/02/18 07:38:49;;;;;;;6.63;2.70;;;11.00;97.20;;;;;;5029868;28;20195;-85
2022/02/18 07:41:15;;;;;;;9.23;3.00;;;10.80;97.20;;;;;;5035121;28;20274;-86
2022/02/18 07:43:40;;;;;;;7.00;2.80;;;11.20;97.40;;;;;;5029784;28;20213;-84
2022/02/18 07:46:06;;;;;;;8.40;2.40;;;10.90;97.40;;;;;;5028166;28;20194;-87
2022/02/18 07:48:32;;;;;;;10.10;2.13;;;10.80;97.40;;;;;;5027076;28;20250;-87
2022/02/18 07:50:57;;;;;;;7.77;2.83;;;10.90;97.50;;;;;;5031778;28;20210;-86
2022/02/18 07:53:23;;;;;;;11.50;2.77;;;10.90;97.60;;;;;;5028549;28;20194;-84
2022/02/18 07:55:49;;;;;;;6.07;2.10;;;11.00;97.90;;;;;;5030834;28;20428;-85
2022/02/18 07:58:15;;;;;;;5.73;2.43;;;11.00;98.00;;;;;;5034877;28;20195;-87
2022/02/18 08:00:41;;;;;;;6.13;2.10;;;10.90;97.90;;;;;;5029044;28;20230;-83
2022/02/18 08:03:07;;;;;;;4.20;1.70;;;10.80;97.90;;;;;;5027882;28;20205;-83
2022/02/18 08:05:33;;;;;;;5.10;2.07;;;11.30;98.50;;;;;;5024694;28;20263;-84
2022/02/18 08:08:00;;;;;;;8.33;2.17;;;11.60;98.30;;;;;;5020868;28;20826;-81
2022/02/18 08:10:27;;;;;;;5.05;1.70;;;11.70;98.30;;;;;;5024781;28;20230;-81
2022/02/18 08:12:53;;;;;;;3.58;2.15;;;11.60;98.10;;;;;;5025558;28;20757;-82
2022/02/18 08:15:18;;;;;;;2.80;1.33;;;11.50;98.10;;;;;;5030718;28;20253;-83
2022/02/18 08:17:44;;;;;;;7.73;2.47;;;11.60;98.30;;;;;;5023810;28;20450;-82
2022/02/18 08:20:11;;;;;;;3.00;1.60;;;11.50;98.30;;;;;;5018741;28;20344;-82
2022/02/18 08:22:37;;;;;;;6.22;2.22;;;11.70;98.50;;;;;;5023775;28;20190;-84
2022/02/18 08:25:04;;;;;;;5.78;2.40;;;11.70;98.60;;;;;;5029094;28;20187;-84
2022/02/18 08:27:29;;;;;;;4.80;1.80;;;12.10;98.90;;;;;;5029125;28;20187;-83
2022/02/18 08:29:55;;;;;;;3.03;1.40;;;12.20;99.00;;;;;;5028109;28;20595;-87
2022/02/18 08:32:21;;;;;;;2.87;1.70;;;12.40;99.10;;;;;;5029221;28;20196;-85
2022/02/18 08:34:47;;;;;;;3.28;1.50;;;12.50;98.90;;;;;;5027779;28;20242;-86
2022/02/18 08:37:13;;;;;;;6.17;1.90;;;12.10;98.70;;;;;;5029152;28;20761;-89
2022/02/18 08:39:40;;;;;;;5.20;1.80;;;12.60;98.80;;;;;;5030141;28;20197;-85
2022/02/18 08:42:11;;;;;;;2.15;1.40;;;12.90;98.80;;;;;;5029068;28;20212;-84
2022/02/18 08:44:37;;;;;;;3.13;1.40;;;12.20;98.50;;;;;;5030420;28;20193;-81
2022/02/18 08:47:03;;;;;;;2.80;1.30;;;12.50;98.70;;;;;;5022277;28;20186;-83
2022/02/18 08:49:29;;;;;;;1.88;1.20;;;12.50;98.90;;;;;;5022007;28;20304;-82
2022/02/18 08:51:55;;;;;;;3.87;1.30;;;12.70;99.00;;;;;;5025910;28;20214;-84
2022/02/18 08:54:20;;;;;;;4.03;1.30;;;12.60;98.90;;;;;;5029964;28;20212;-87
2022/02/18 08:56:46;;;;;;;4.07;1.40;;;13.00;99.00;;;;;;5031047;28;20255;-87
2022/02/18 08:59:12;;;;;;;3.30;1.30;;;13.10;98.90;;;;;;5025468;28;20187;-83
2022/02/18 09:01:37;;;;;;;3.67;1.57;;;13.10;98.80;;;;;;5025329;28;20207;-82
2022/02/18 09:04:03;;;;;;;1.10;0.97;;;13.50;98.90;;;;;;5027158;28;20284;-82
2022/02/18 09:06:29;;;;;;;2.30;1.00;;;12.80;98.50;;;;;;5020385;28;20201;-82
2022/02/18 09:08:55;;;;;;;1.17;0.80;;;13.10;98.50;;;;;;5025514;28;20304;-83
2022/02/18 09:11:21;;;;;;;2.10;1.10;;;13.40;98.10;;;;;;5025674;28;21307;-86
2022/02/18 09:13:47;;;;;;;7.57;1.50;;;13.70;98.00;;;;;;5029050;28;20186;-84
2022/02/18 09:16:13;;;;;;;2.72;1.20;;;13.40;97.70;;;;;;5028337;28;20247;-84
2022/02/18 09:18:39;;;;;;;1.73;1.17;;;13.90;97.90;;;;;;5025938;28;20451;-87
2022/02/18 09:21:05;;;;;;;3.77;1.00;;;13.90;97.80;;;;;;5030360;28;20545;-86
2022/02/18 09:23:31;;;;;;;2.25;1.13;;;13.90;97.60;;;;;;5037117;28;20236;-85
2022/02/18 09:25:57;;;;;;;2.00;1.50;;;14.30;97.90;;;;;;5042551;28;20186;-78
2022/02/18 09:28:23;;;;;;;4.17;1.23;;;14.20;97.60;;;;;;5008973;28;21782;-78
2022/02/18 09:30:51;;;;;;;2.95;1.40;;;14.40;97.00;;;;;;5024314;28;20208;-80
2022/02/18 09:33:17;;;;;;;2.25;1.30;;;15.00;97.10;;;;;;5029296;28;20199;-81
2022/02/18 09:35:43;;;;;;;3.72;1.27;;;15.10;96.80;;;;;;5028931;28;20196;-81
2022/02/18 09:38:10;;;;;;;1.13;0.85;;;15.20;96.50;;;;;;5032695;28;20186;-83
2022/02/18 09:40:37;;;;;;;1.92;1.10;;;14.60;96.10;;;;;;5029947;28;20212;-83
2022/02/18 09:43:03;;;;;;;2.10;1.30;;;15.20;96.20;;;;;;5032108;28;20620;-81
2022/02/18 09:45:29;;;;;;;4.90;2.22;;;15.40;96.20;;;;;;5031030;28;20198;-80
2022/02/18 09:47:55;;;;;;;1.73;0.90;;;15.70;96.40;;;;;;5029590;28;20190;-83
2022/02/18 09:50:22;;;;;;;1.40;1.05;;;14.90;95.70;;;;;;5039158;28;20712;-85
2022/02/18 09:52:47;;;;;;;4.15;1.05;;;15.70;96.00;;;;;;5036146;28;20194;-86
2022/02/18 09:55:13;;;;;;;2.20;1.30;;;15.20;95.50;;;;;;5036905;28;21258;-88
2022/02/18 09:57:42;;;;;;;2.80;1.13;;;15.40;95.10;;;;;;5028308;28;20186;-84
2022/02/18 10:00:09;;;;;;;2.47;1.23;;;16.10;95.30;;;;;;5035069;28;20427;-89
2022/02/18 10:02:39;;;;;;;2.30;1.17;;;16.00;95.00;;;;;;5036300;28;20186;-87
2022/02/18 10:05:06;;;;;;;2.47;0.95;;;15.80;94.80;;;;;;5036102;28;20511;-88
2022/02/18 10:07:32;;;;;;;6.90;2.65;;;16.10;94.70;;;;;;5032666;28;20226;-88
2022/02/18 10:09:58;;;;;;;3.72;1.30;;;16.00;94.30;;;;;;5034703;28;20209;-86
2022/02/18 10:12:42;;;;;;;4.27;2.00;;;16.20;94.30;;;;;;5036654;28;20194;-88
2022/02/18 10:15:11;;;;;;;4.93;2.55;;;16.20;94.40;;;;;;5037044;28;20539;-86
2022/02/18 10:17:41;;;;;;;1.25;0.90;;;16.30;94.20;;;;;;5032844;28;20194;-86
2022/02/18 10:20:20;;;;;;;5.28;1.67;;;16.50;94.40;;;;;;5034371;28;20182;-87
2022/02/18 10:23:01;;;;;;;3.00;1.67;;;16.70;94.40;;;;;;5033589;28;20226;-85
2022/02/18 10:25:39;;;;;;;2.45;1.10;;;16.90;94.20;;;;;;5033346;28;20186;-85
2022/02/18 10:28:12;;;;;;;1.60;1.10;;;17.30;93.20;;;;;;5030408;28;20240;-83
2022/02/18 10:30:39;;;;;;;2.10;1.30;;;18.10;92.40;;;;;;5033591;28;20208;-84
2022/02/18 10:33:14;;;;;;;2.97;1.38;;;19.00;91.10;;;;;;5046690;28;20587;-84
2022/02/18 10:35:40;;;;;;;2.00;1.15;;;18.80;90.20;;;;;;5053734;28;20199;-84
2022/02/18 10:38:07;;;;;;;3.17;1.10;;;19.20;90.10;;;;;;5043905;28;20259;-84
2022/02/18 10:40:44;;;;;;;1.92;1.33;;;18.70;89.80;;;;;;5048966;28;20240;-85
2022/02/18 10:43:13;;;;;;;4.57;1.48;;;18.10;90.50;;;;;;5042459;28;20501;-85
2022/02/18 10:45:59;;;;;;;1.90;1.38;;;18.20;91.00;;;;;;5037727;28;20189;-84
2022/02/18 10:48:31;;;;;;;3.92;1.30;;;17.70;91.10;;;;;;5037281;28;20259;-85
2022/02/18 10:51:14;;;;;;;2.40;1.40;;;18.50;91.30;;;;;;5040089;28;20198;-85
2022/02/18 10:53:45;;;;;;;3.35;1.23;;;18.10;90.90;;;;;;5045065;28;20224;-85
2022/02/18 10:56:15;;;;;;;2.40;1.40;;;17.80;91.20;;;;;;5039855;28;20178;-85
2022/02/18 10:58:48;;;;;;;2.03;1.30;;;18.30;91.50;;;;;;5033587;28;20190;-86
2022/02/18 11:01:15;;;;;;;2.65;1.20;;;18.40;91.10;;;;;;5034237;28;20210;-85
2022/02/18 11:03:48;;;;;;;1.73;1.00;;;18.50;90.70;;;;;;5037407;28;20545;-85
2022/02/18 11:06:24;;;;;;;3.03;1.30;;;19.10;90.30;;;;;;5031381;28;20190;-84
2022/02/18 11:08:54;;;;;;;3.78;1.52;;;19.10;88.70;;;;;;5036147;28;20211;-84
2022/02/18 11:11:21;;;;;;;2.67;1.35;;;19.20;88.70;;;;;;5040906;28;20690;-84
2022/02/18 11:13:48;;;;;;;2.70;1.00;;;19.60;87.70;;;;;;5037235;28;20194;-84
2022/02/18 11:16:16;;;;;;;3.10;1.15;;;20.50;86.80;;;;;;5051291;28;20196;-84
2022/02/18 11:18:42;;;;;;;3.53;1.05;;;20.40;83.30;;;;;;5033361;28;20260;-84
2022/02/18 11:21:10;;;;;;;2.33;1.20;;;20.50;82.80;;;;;;5031394;28;20214;-84
2022/02/18 11:23:38;;;;;;;4.47;1.38;;;20.50;83.00;;;;;;5036996;28;20240;-84
2022/02/18 11:26:03;;;;;;;4.80;1.00;;;20.30;83.30;;;;;;5033184;28;20245;-85
2022/02/18 11:28:30;;;;;;;1.77;0.80;;;19.90;84.70;;;;;;5031099;28;20218;-86
2022/02/18 11:31:03;;;;;;;2.33;0.82;;;19.60;84.30;;;;;;5036786;28;20724;-85
2022/02/18 11:34:07;;;;;;;2.42;1.83;;;19.20;84.40;;;;;;5037277;28;20178;-84
2022/02/18 11:36:52;;;;;;;2.03;1.00;;;19.00;85.10;;;;;;5035545;28;20185;-86
2022/02/18 11:39:46;;;;;;;5.05;2.95;;;18.60;84.80;;;;;;5012363;28;20182;-84
2022/02/18 11:42:41;;;;;;;5.80;1.27;;;18.50;85.30;;;;;;5031630;28;20207;-89
2022/02/18 11:45:13;;;;;;;1.23;0.95;;;18.70;83.80;;;;;;5028993;28;20178;-86
2022/02/18 11:47:38;;;;;;;2.42;1.27;;;19.10;83.10;;;;;;5032920;28;20201;-87
2022/02/18 11:50:18;;;;;;;1.83;1.20;;;19.20;83.60;;;;;;5017245;28;20310;-87
2022/02/18 11:52:46;;;;;;;1.92;1.08;;;18.80;83.70;;;;;;5032167;28;20181;-88
2022/02/18 11:55:30;;;;;;;2.15;1.05;;;19.40;83.00;;;;;;5029580;28;20188;-83
2022/02/18 11:58:03;;;;;;;2.75;2.00;;;19.20;83.00;;;;;;5029386;28;20225;-85
2022/02/18 12:00:42;;;;;;;2.13;0.90;;;19.20;82.70;;;;;;5027213;28;20197;-86
2022/02/18 12:03:13;;;;;;;2.15;1.33;;;19.40;82.50;;;;;;5029032;28;20211;-89
2022/02/18 12:06:10;;;;;;;2.30;1.30;;;19.80;82.20;;;;;;5031907;28;20186;-88
2022/02/18 12:08:39;;;;;;;1.90;1.30;;;19.40;81.90;;;;;;5030559;28;20214;-83
2022/02/18 12:11:13;;;;;;;3.95;1.25;;;19.00;82.90;;;;;;5030252;28;20217;-85
2022/02/18 12:13:59;;;;;;;3.80;1.30;;;19.50;83.60;;;;;;5030334;28;20210;-89
2022/02/18 12:16:26;;;;;;;1.40;0.90;;;19.40;82.30;;;;;;5031185;28;20193;-89
2022/02/18 12:19:14;;;;;;;2.63;1.35;;;19.90;82.00;;;;;;5030436;28;20190;-90
2022/02/18 12:21:55;;;;;;;5.70;1.95;;;19.40;81.80;;;;;;5031301;28;20241;-85
2022/02/18 12:24:33;;;;;;;2.55;1.00;;;19.10;82.40;;;;;;5027661;28;21585;-82
2022/02/18 12:27:24;;;;;;;1.95;1.13;;;18.90;81.90;;;;;;5024883;28;20247;-84
2022/02/18 12:29:54;;;;;;;2.58;1.25;;;18.70;82.30;;;;;;5028842;28;20205;-82
2022/02/18 12:32:21;;;;;;;2.47;0.90;;;18.50;83.40;;;;;;5027499;28;20270;-83
2022/02/18 12:34:59;;;;;;;3.58;0.80;;;18.80;84.50;;;;;;5022220;28;20311;-84
2022/02/18 12:37:25;;;;;;;4.75;1.10;;;18.80;84.70;;;;;;5034861;28;20197;-85
2022/02/18 12:39:57;;;;;;;4.30;2.03;;;18.50;85.00;;;;;;5029724;28;20186;-89
2022/02/18 12:42:25;;;;;;;2.03;0.90;;;18.30;84.00;;;;;;5022655;28;20182;-91
2022/02/18 12:44:54;;;;;;;1.33;0.95;;;18.80;84.40;;;;;;5022123;28;20218;-91
2022/02/18 12:47:42;;;;;;;1.73;0.90;;;18.60;84.00;;;;;;5030745;28;20190;-86
2022/02/18 12:50:11;;;;;;;2.13;1.10;;;18.60;84.50;;;;;;5025076;28;20210;-85